Time;durP1;ratioP1;P1;durP2;ratioP2;P2;SDS_P1;SDS_P2;PMS_P1;PMS_P2;Temp;Humidity;BMP_temperature;BMP_pressure;BME280_temperature;BME280_humidity;BME280_pressure;Samples;Min_cycle;Max_cycle;Signal;HPM_P1;HPM_P2
2022/04/30 00:01:12;;;;;;;18.47;13.40;;;;;;;12.05;72.91;100779.41;5077437;28;20232;-59
2022/04/30 00:03:38;;;;;;;18.80;13.37;;;;;;;12.11;72.35;100779.13;5093210;28;20606;-58
2022/04/30 00:06:04;;;;;;;21.03;13.13;;;;;;;11.98;73.07;100779.81;5091818;28;20172;-59
2022/04/30 00:08:30;;;;;;;20.10;12.60;;;;;;;11.78;73.45;100776.44;5077788;28;20199;-58
2022/04/30 00:10:55;;;;;;;17.47;11.77;;;;;;;11.77;74.05;100777.34;5082787;28;20243;-57
2022/04/30 00:13:21;;;;;;;16.97;12.40;;;;;;;11.78;74.30;100779.84;5085425;28;20196;-58
2022/04/30 00:15:46;;;;;;;22.83;12.70;;;;;;;11.80;74.30;100787.50;5072889;28;20185;-58
2022/04/30 00:18:12;;;;;;;19.30;13.67;;;;;;;11.75;77.80;100792.06;5072898;28;20652;-58
2022/04/30 00:20:38;;;;;;;18.97;13.40;;;;;;;11.69;80.79;100792.34;5067759;28;20701;-58
2022/04/30 00:23:04;;;;;;;21.93;14.03;;;;;;;11.70;85.39;100804.34;5084175;28;20173;-57
2022/04/30 00:25:30;;;;;;;16.90;13.27;;;;;;;11.57;87.26;100796.34;5072886;28;20199;-56
2022/04/30 00:27:55;;;;;;;16.40;13.73;;;;;;;11.37;90.79;100805.84;5072657;28;20177;-56
2022/04/30 00:30:20;;;;;;;21.90;14.10;;;;;;;11.19;93.71;100809.25;5065066;28;20206;-58
2022/04/30 00:32:47;;;;;;;19.67;14.27;;;;;;;10.87;96.77;100811.56;5071754;28;20531;-57
2022/04/30 00:35:13;;;;;;;20.70;15.00;;;;;;;10.87;100.00;100806.41;5072948;28;20216;-58
2022/04/30 00:37:38;;;;;;;22.37;15.13;;;;;;;10.62;100.00;100804.94;5072352;28;20207;-58
2022/04/30 00:40:04;;;;;;;19.20;14.73;;;;;;;10.45;100.00;100803.91;5061475;28;20216;-58
2022/04/30 00:42:29;;;;;;;19.60;15.63;;;;;;;10.43;100.00;100808.28;5072322;28;20190;-58
2022/04/30 00:44:55;;;;;;;22.40;16.17;;;;;;;10.56;100.00;100805.19;5090621;28;20176;-58
2022/04/30 00:47:20;;;;;;;22.23;16.33;;;;;;;10.53;100.00;100808.72;5090878;28;20600;-60
2022/04/30 00:49:46;;;;;;;24.57;17.87;;;;;;;10.59;100.00;100800.75;5084747;28;20288;-58
2022/04/30 00:52:15;;;;;;;24.83;17.40;;;;;;;10.56;100.00;100800.88;5081569;28;20215;-57
2022/04/30 00:54:41;;;;;;;25.53;16.67;;;;;;;10.43;100.00;100802.28;5082053;28;20208;-58
2022/04/30 00:57:11;;;;;;;25.77;18.03;;;;;;;10.31;100.00;100793.34;5087203;28;20173;-57
2022/04/30 00:59:40;;;;;;;23.87;18.50;;;;;;;10.20;100.00;100798.09;5071925;28;20256;-57
2022/04/30 01:02:09;;;;;;;23.27;17.17;;;;;;;10.29;100.00;100803.66;5061076;28;20640;-57
2022/04/30 01:04:34;;;;;;;24.40;19.27;;;;;;;10.17;100.00;100805.03;5088054;28;20191;-57
2022/04/30 01:07:06;;;;;;;24.57;17.83;;;;;;;10.15;100.00;100801.69;5071932;28;20263;-58
2022/04/30 01:09:35;;;;;;;25.73;19.03;;;;;;;10.25;100.00;100803.88;5071925;28;20234;-58
2022/04/30 01:12:11;;;;;;;27.60;18.80;;;;;;;10.17;100.00;100805.03;5060837;28;20228;-58
2022/04/30 01:14:38;;;;;;;28.13;18.80;;;;;;;10.15;100.00;100804.25;5089853;28;20214;-58
2022/04/30 01:17:05;;;;;;;22.20;18.07;;;;;;;10.21;100.00;100802.31;5091998;28;20184;-58
2022/04/30 01:19:33;;;;;;;26.93;19.03;;;;;;;10.29;100.00;100803.66;5081273;28;20328;-58
2022/04/30 01:22:01;;;;;;;25.33;19.20;;;;;;;10.34;100.00;100809.47;5077239;28;20580;-58
2022/04/30 01:24:28;;;;;;;28.17;19.57;;;;;;;10.32;100.00;100800.97;5071839;28;20188;-57
2022/04/30 01:26:57;;;;;;;27.90;19.27;;;;;;;10.23;100.00;100801.34;5071543;28;20646;-57
2022/04/30 01:29:24;;;;;;;24.13;20.23;;;;;;;10.21;100.00;100798.03;5071940;28;20180;-57
2022/04/30 01:37:25;;;;;;;26.97;19.53;;;;;;;9.98;100.00;100791.25;5071694;28;20535;-58
2022/04/30 01:39:59;;;;;;;24.43;19.53;;;;;;;9.99;100.00;100792.94;5071857;28;20180;-58
2022/04/30 01:42:29;;;;;;;25.00;19.70;;;;;;;9.93;100.00;100783.72;5079986;28;20780;-58
2022/04/30 01:44:57;;;;;;;25.87;19.93;;;;;;;9.92;100.00;100792.34;5092042;28;20176;-58
2022/04/30 01:47:23;;;;;;;25.30;18.80;;;;;;;9.89;100.00;100791.66;5083618;28;20263;-57
2022/04/30 01:49:50;;;;;;;21.67;19.23;;;;;;;9.76;100.00;100792.16;5091457;28;20233;-57
2022/04/30 01:52:16;;;;;;;25.53;17.97;;;;;;;9.75;100.00;100790.47;5080237;28;20657;-57
2022/04/30 01:54:42;;;;;;;24.83;18.67;;;;;;;9.74;100.00;100785.41;5071639;28;20208;-58
2022/04/30 01:57:08;;;;;;;20.60;17.23;;;;;;;9.60;100.00;100778.22;5071318;28;20181;-58
2022/04/30 01:59:33;;;;;;;23.80;16.57;;;;;;;9.58;100.00;100772.34;5071501;28;20183;-58
2022/04/30 02:02:00;;;;;;;20.27;17.30;;;;;;;9.52;100.00;100775.97;5072243;28;20220;-57
2022/04/30 02:04:27;;;;;;;21.57;16.40;;;;;;;9.51;100.00;100771.72;5082653;28;20229;-58
2022/04/30 02:06:53;;;;;;;21.93;15.97;;;;;;;9.66;100.00;100766.00;5089956;28;20733;-58
2022/04/30 02:09:20;;;;;;;24.53;16.90;;;;;;;9.62;100.00;100768.72;5092532;28;20638;-58
2022/04/30 02:11:46;;;;;;;21.50;15.83;;;;;;;9.56;100.00;100762.09;5089878;28;20282;-57
2022/04/30 02:14:13;;;;;;;20.07;14.60;;;;;;;9.23;100.00;100757.41;5081346;28;20298;-57
2022/04/30 02:16:40;;;;;;;22.97;16.97;;;;;;;9.13;100.00;100762.03;5074940;28;20175;-58
2022/04/30 02:19:07;;;;;;;21.33;14.83;;;;;;;8.99;100.00;100754.88;5098577;28;20183;-58
2022/04/30 02:21:34;;;;;;;17.70;14.87;;;;;;;8.91;100.00;100753.50;5084578;28;20234;-58
2022/04/30 02:24:00;;;;;;;19.90;15.73;;;;;;;8.85;100.00;100749.41;5090453;28;20179;-58
2022/04/30 02:26:27;;;;;;;22.20;15.97;;;;;;;8.88;100.00;100747.56;5095186;28;20249;-58
2022/04/30 02:28:57;;;;;;;20.13;15.47;;;;;;;8.81;100.00;100746.13;5095536;28;20569;-58
2022/04/30 02:31:24;;;;;;;18.50;15.40;;;;;;;8.80;100.00;100741.06;5084633;28;20235;-58
2022/04/30 02:33:49;;;;;;;20.37;15.63;;;;;;;8.76;100.00;100737.75;5094727;28;20204;-58
2022/04/30 02:36:15;;;;;;;23.93;16.57;;;;;;;8.81;100.00;100727.34;5095176;28;20179;-58
2022/04/30 02:38:41;;;;;;;22.37;17.20;;;;;;;8.88;100.00;100728.75;5095530;28;20626;-58
2022/04/30 02:41:07;;;;;;;22.10;17.13;;;;;;;8.93;100.00;100732.00;5081854;28;20242;-57
2022/04/30 02:43:33;;;;;;;26.43;17.97;;;;;;;8.92;100.00;100724.34;5083480;28;20281;-58
2022/04/30 02:45:58;;;;;;;25.67;17.47;;;;;;;9.10;100.00;100715.94;5093640;28;20258;-58
2022/04/30 02:48:24;;;;;;;20.90;17.93;;;;;;;9.07;100.00;100717.78;5095344;28;20696;-59
2022/04/30 02:50:51;;;;;;;27.53;19.07;;;;;;;9.04;100.00;100711.06;5066302;28;20265;-59
2022/04/30 02:53:17;;;;;;;25.53;18.03;;;;;;;9.04;100.00;100708.47;5074038;28;20257;-58
2022/04/30 02:55:42;;;;;;;27.47;19.13;;;;;;;9.12;100.00;100710.78;5074602;28;20176;-57
2022/04/30 03:00:52;;;;;;;27.23;17.67;;;;;;;9.12;100.00;100708.22;5048008;28;20674;-58
2022/04/30 03:03:18;;;;;;;26.93;17.03;;;;;;;9.07;100.00;100715.22;5074188;28;20211;-59
2022/04/30 03:05:47;;;;;;;30.57;20.10;;;;;;;9.23;100.00;100716.31;5074818;28;20172;-58
2022/04/30 03:08:19;;;;;;;21.90;17.50;;;;;;;9.23;100.00;100712.91;5092040;28;20275;-58
2022/04/30 03:10:46;;;;;;;26.60;17.83;;;;;;;9.37;100.00;100713.22;5084182;28;20235;-58
2022/04/30 03:13:13;;;;;;;20.70;17.87;;;;;;;9.43;100.00;100719.84;5088015;28;20212;-57
2022/04/30 03:15:41;;;;;;;22.40;18.50;;;;;;;9.40;100.00;100717.38;5069027;28;20223;-58
2022/04/30 03:23:39;;;;;;;25.70;18.80;;;;;;;9.49;100.00;100717.84;5093910;28;20280;-58
2022/04/30 03:26:06;;;;;;;21.67;17.90;;;;;;;9.30;100.00;100710.06;5092942;28;20178;-59
2022/04/30 03:28:32;;;;;;;23.87;18.57;;;;;;;9.35;100.00;100707.28;5094595;28;20183;-58
2022/04/30 03:30:58;;;;;;;24.53;18.73;;;;;;;9.27;100.00;100705.03;5063461;28;20250;-59
2022/04/30 03:33:24;;;;;;;20.67;17.47;;;;;;;9.10;100.00;100699.72;5093803;28;20654;-59
2022/04/30 03:35:49;;;;;;;25.03;18.57;;;;;;;9.02;100.00;100700.84;5093915;28;20260;-58
2022/04/30 03:38:14;;;;;;;23.37;16.90;;;;;;;8.87;100.00;100697.13;5086223;28;20195;-59
2022/04/30 03:40:40;;;;;;;22.47;16.73;;;;;;;8.85;100.00;100692.97;5084835;28;20678;-59
2022/04/30 03:43:06;;;;;;;22.70;17.60;;;;;;;8.84;100.00;100692.16;5085472;28;20211;-59
2022/04/30 03:45:32;;;;;;;22.70;18.13;;;;;;;8.86;100.00;100700.59;5073694;28;20245;-59
2022/04/30 03:47:57;;;;;;;23.43;19.00;;;;;;;8.78;100.00;100688.94;5086478;28;20183;-59
2022/04/30 03:50:22;;;;;;;23.67;17.47;;;;;;;8.76;100.00;100699.28;5083664;28;20280;-59
2022/04/30 03:52:47;;;;;;;24.63;18.57;;;;;;;8.74;100.00;100692.53;5093271;28;20293;-59
2022/04/30 03:55:16;;;;;;;24.63;17.33;;;;;;;8.77;100.00;100698.38;5093815;28;20207;-61
2022/04/30 03:57:42;;;;;;;24.87;19.37;;;;;;;8.79;100.00;100688.88;5093336;28;20179;-58
2022/04/30 04:00:09;;;;;;;28.73;18.93;;;;;;;8.76;100.00;100699.28;5085610;28;20184;-60
2022/04/30 04:02:36;;;;;;;22.77;17.87;;;;;;;8.72;100.00;100698.56;5088061;28;20172;-59
2022/04/30 04:05:02;;;;;;;27.27;19.10;;;;;;;8.62;100.00;100704.94;5073469;28;20177;-59
2022/04/30 04:07:27;;;;;;;24.10;18.27;;;;;;;8.62;100.00;100704.06;5072748;28;20716;-59
2022/04/30 04:09:52;;;;;;;22.97;18.67;;;;;;;8.61;100.00;100700.69;5071995;28;20227;-58
2022/04/30 04:12:18;;;;;;;25.73;18.73;;;;;;;8.63;100.00;100704.00;5063075;28;20241;-58
2022/04/30 04:17:39;;;;;;;21.03;16.90;;;;;;;8.54;100.00;100706.94;5072435;28;20537;-60
2022/04/30 04:20:09;;;;;;;26.00;18.40;;;;;;;8.69;100.00;100708.09;5077310;28;20604;-57
2022/04/30 04:22:35;;;;;;;23.00;19.23;;;;;;;8.94;100.00;100709.75;5092489;28;20174;-58
2022/04/30 04:27:45;;;;;;;25.23;19.87;;;;;;;9.10;100.00;100717.69;5092766;28;20229;-58
2022/04/30 04:30:10;;;;;;;24.10;20.20;;;;;;;9.02;100.00;100715.44;5083194;28;20176;-58
2022/04/30 04:32:36;;;;;;;29.53;20.40;;;;;;;9.20;100.00;100714.72;5075493;28;20531;-57
2022/04/30 04:35:01;;;;;;;27.17;19.63;;;;;;;9.34;100.00;100714.16;5092256;28;20651;-57
2022/04/30 04:37:27;;;;;;;25.43;20.20;;;;;;;9.36;100.00;100716.66;5072134;28;20635;-58
2022/04/30 04:39:54;;;;;;;23.77;19.37;;;;;;;9.44;100.00;100724.91;5084146;28;20631;-57
2022/04/30 04:42:19;;;;;;;27.97;20.63;;;;;;;9.48;100.00;100725.63;5045606;28;20221;-58
2022/04/30 04:44:46;;;;;;;23.37;19.73;;;;;;;9.48;100.00;100728.19;5072604;28;20196;-57
2022/04/30 04:47:12;;;;;;;25.93;19.63;;;;;;;9.56;100.00;100722.75;5071041;28;20268;-58
2022/04/30 04:49:37;;;;;;;25.03;18.83;;;;;;;9.54;100.00;100727.94;5071248;28;20222;-58
2022/04/30 04:52:03;;;;;;;26.23;19.07;;;;;;;9.48;100.00;100723.88;5061025;28;20633;-58
2022/04/30 04:54:28;;;;;;;22.20;19.33;;;;;;;9.54;100.00;100727.94;5072437;28;20534;-58
2022/04/30 04:56:53;;;;;;;22.13;18.53;;;;;;;9.52;100.00;100729.75;5072172;28;20171;-58
2022/04/30 04:59:19;;;;;;;24.77;18.40;;;;;;;9.48;100.00;100735.91;5072522;28;20176;-57
2022/04/30 05:01:47;;;;;;;26.17;18.93;;;;;;;9.43;100.00;100733.50;5070902;28;20542;-58
2022/04/30 05:04:13;;;;;;;21.70;18.47;;;;;;;9.47;100.00;100729.09;5074309;28;20547;-59
2022/04/30 05:06:38;;;;;;;20.97;17.90;;;;;;;9.37;100.00;100733.75;5077155;28;20168;-59
2022/04/30 05:09:03;;;;;;;24.77;18.40;;;;;;;9.33;100.00;100740.72;5092157;28;20693;-58
2022/04/30 05:11:29;;;;;;;22.13;16.03;;;;;;;9.27;100.00;100732.44;5081195;28;20297;-57
2022/04/30 05:13:54;;;;;;;18.87;15.60;;;;;;;9.25;100.00;100734.22;5080348;28;20200;-59
2022/04/30 05:16:19;;;;;;;21.13;17.07;;;;;;;9.39;100.00;100741.38;5071567;28;20173;-59
2022/04/30 05:18:44;;;;;;;19.70;16.83;;;;;;;9.45;100.00;100746.28;5075311;28;20248;-57
2022/04/30 05:21:10;;;;;;;22.17;18.03;;;;;;;9.50;100.00;100745.22;5081462;28;20223;-59
2022/04/30 05:23:36;;;;;;;21.43;17.37;;;;;;;9.41;100.00;100747.31;5083512;28;20187;-58
2022/04/30 05:26:02;;;;;;;19.57;15.43;;;;;;;9.34;100.00;100741.56;5091574;28;20172;-58
2022/04/30 05:28:27;;;;;;;20.80;16.27;;;;;;;9.31;100.00;100744.25;5092367;28;20678;-59
2022/04/30 05:30:52;;;;;;;18.10;16.17;;;;;;;9.44;100.00;100742.03;5081541;28;20654;-57
2022/04/30 05:33:18;;;;;;;17.87;15.97;;;;;;;9.49;100.00;100747.84;5090806;28;20180;-58
2022/04/30 05:35:43;;;;;;;19.67;15.80;;;;;;;9.26;100.00;100748.75;5089063;28;20708;-59
2022/04/30 05:38:08;;;;;;;19.17;15.97;;;;;;;9.23;100.00;100748.84;5083397;28;20169;-59
2022/04/30 05:40:34;;;;;;;18.97;14.80;;;;;;;9.18;100.00;100751.63;5069529;28;20677;-58
2022/04/30 05:43:00;;;;;;;17.23;15.37;;;;;;;9.30;100.00;100746.00;5094359;28;20189;-58
2022/04/30 05:45:25;;;;;;;18.00;14.77;;;;;;;9.28;100.00;100754.63;5071123;28;20188;-58
2022/04/30 05:47:50;;;;;;;17.80;16.00;;;;;;;9.27;100.00;100747.84;5069850;28;20173;-58
2022/04/30 05:50:16;;;;;;;18.43;16.17;;;;;;;9.29;100.00;100748.59;5063369;28;20181;-59
2022/04/30 05:52:41;;;;;;;17.80;15.77;;;;;;;9.28;100.00;100758.06;5070254;28;20176;-59
2022/04/30 05:55:07;;;;;;;18.53;15.87;;;;;;;9.27;100.00;100751.25;5070166;28;20236;-59
2022/04/30 05:57:32;;;;;;;18.23;15.07;;;;;;;9.42;100.00;100759.25;5070770;28;20229;-57
2022/04/30 05:59:58;;;;;;;19.93;15.53;;;;;;;9.34;100.00;100762.09;5071495;28;20607;-58
2022/04/30 06:02:23;;;;;;;18.10;14.87;;;;;;;9.32;100.00;100759.59;5075776;28;20578;-59
2022/04/30 06:04:49;;;;;;;17.37;15.50;;;;;;;9.33;100.00;100763.84;5090473;28;20172;-59
2022/04/30 06:07:15;;;;;;;17.10;15.23;;;;;;;9.42;100.00;100772.09;5080786;28;20648;-58
2022/04/30 06:09:41;;;;;;;16.47;14.37;;;;;;;9.32;100.00;100767.28;5086531;28;20228;-58
2022/04/30 06:12:07;;;;;;;15.97;14.20;;;;;;;9.27;100.00;100768.38;5077012;28;20645;-58
2022/04/30 06:14:32;;;;;;;18.83;14.27;;;;;;;9.30;100.00;100769.13;5088452;28;20200;-59
2022/04/30 06:16:58;;;;;;;14.80;13.30;;;;;;;9.28;100.00;100770.88;5107632;28;20184;-59
2022/04/30 06:19:24;;;;;;;17.63;14.20;;;;;;;9.31;100.00;100773.31;5082036;28;20263;-59
2022/04/30 06:21:50;;;;;;;15.43;13.90;;;;;;;9.40;100.00;100779.84;5080200;28;20223;-58
2022/04/30 06:24:16;;;;;;;15.87;13.50;;;;;;;9.40;100.00;100782.41;5070193;28;20181;-58
2022/04/30 06:26:41;;;;;;;16.27;13.30;;;;;;;9.21;100.00;100782.28;5071398;28;20180;-59
2022/04/30 06:29:07;;;;;;;15.77;14.17;;;;;;;9.32;100.00;100779.31;5071730;28;20169;-58
2022/04/30 06:31:33;;;;;;;16.53;14.07;;;;;;;9.32;100.00;100777.56;5073263;28;20284;-59
2022/04/30 06:33:58;;;;;;;15.70;13.50;;;;;;;9.16;100.00;100781.63;5077818;28;20291;-59
2022/04/30 06:36:23;;;;;;;14.93;13.43;;;;;;;9.09;100.00;100777.59;5080217;28;20209;-59
2022/04/30 06:38:49;;;;;;;16.70;13.73;;;;;;;9.01;100.00;100786.44;5071753;28;20177;-58
2022/04/30 06:41:14;;;;;;;14.40;12.90;;;;;;;9.04;100.00;100791.47;5070316;28;20231;-59
2022/04/30 06:43:41;;;;;;;14.17;12.67;;;;;;;8.93;100.00;100803.00;5070333;28;20702;-59
2022/04/30 06:46:07;;;;;;;14.00;12.57;;;;;;;8.85;100.00;100791.28;5071990;28;20507;-59
2022/04/30 06:48:32;;;;;;;14.37;12.47;;;;;;;8.76;100.00;100795.91;5069975;28;20173;-58
2022/04/30 06:50:59;;;;;;;14.80;12.90;;;;;;;8.80;100.00;100794.91;5068643;28;20238;-59
2022/04/30 06:58:55;;;;;;;16.30;13.13;;;;;;;9.00;100.00;100799.31;5075036;28;20605;-58
2022/04/30 07:03:55;;;;;;;14.87;12.53;;;;;;;8.74;100.00;100807.97;5084880;28;20175;-58
2022/04/30 07:06:20;;;;;;;13.87;11.47;;;;;;;8.57;100.00;100809.41;5075961;28;20644;-59
2022/04/30 07:08:46;;;;;;;15.47;12.57;;;;;;;8.53;100.00;100811.22;5094830;28;20278;-59
2022/04/30 07:11:11;;;;;;;13.97;12.57;;;;;;;8.50;100.00;100813.06;5083950;28;20253;-59
2022/04/30 07:13:37;;;;;;;13.57;12.10;;;;;;;8.37;100.00;100813.44;5076850;28;20277;-59
2022/04/30 07:16:04;;;;;;;14.73;12.77;;;;;;;8.52;100.00;100816.41;5071882;28;20233;-61
2022/04/30 07:18:29;;;;;;;13.90;12.43;;;;;;;8.65;100.00;100821.94;5083911;28;20177;-58
2022/04/30 07:20:55;;;;;;;14.40;12.13;;;;;;;8.66;100.00;100816.75;5083671;28;20227;-58
2022/04/30 07:23:21;;;;;;;14.67;12.00;;;;;;;8.82;100.00;100811.06;5093667;28;20548;-59
2022/04/30 07:25:46;;;;;;;13.30;11.73;;;;;;;8.86;100.00;100818.63;5094351;28;20279;-59
2022/04/30 07:28:11;;;;;;;15.97;12.00;;;;;;;8.95;100.00;100825.13;5093810;28;20172;-59
2022/04/30 07:30:37;;;;;;;16.07;12.67;;;;;;;8.94;100.00;100826.03;5058204;28;20282;-58
2022/04/30 07:33:02;;;;;;;13.77;11.53;;;;;;;8.93;100.00;100816.69;5076369;28;20198;-59
2022/04/30 07:35:28;;;;;;;13.00;11.70;;;;;;;9.00;100.00;100818.09;5092451;28;20650;-59
2022/04/30 07:37:53;;;;;;;12.87;11.57;;;;;;;9.19;100.00;100822.56;5092037;28;20221;-59
2022/04/30 07:40:18;;;;;;;15.93;10.93;;;;;;;9.00;100.00;100820.66;5079872;28;20180;-61
2022/04/30 07:42:44;;;;;;;12.20;9.60;;;;;;;8.96;100.00;100828.56;5106944;28;20280;-59
2022/04/30 07:45:10;;;;;;;12.77;11.47;;;;;;;9.11;100.00;100827.16;5075078;28;20693;-58
2022/04/30 07:47:36;;;;;;;12.03;10.73;;;;;;;9.01;100.00;100824.09;5088972;28;20264;-59
2022/04/30 07:50:02;;;;;;;11.27;9.97;;;;;;;8.86;100.00;100823.75;5091019;28;20277;-59
2022/04/30 07:52:28;;;;;;;13.10;11.37;;;;;;;9.18;100.00;100828.63;5070867;28;20208;-60
2022/04/30 07:54:54;;;;;;;12.57;11.17;;;;;;;9.29;100.00;100829.06;5073082;28;20216;-60
2022/04/30 07:57:20;;;;;;;12.33;11.00;;;;;;;9.42;100.00;100826.84;5072559;28;20270;-59
2022/04/30 07:59:46;;;;;;;13.37;10.60;;;;;;;9.41;100.00;100829.47;5086715;28;20266;-59
2022/04/30 08:02:12;;;;;;;11.57;10.37;;;;;;;9.52;100.00;100829.91;5081765;28;20354;-58
2022/04/30 08:04:37;;;;;;;11.83;10.40;;;;;;;9.49;100.00;100828.28;5093032;28;20176;-58
2022/04/30 08:07:02;;;;;;;12.57;10.57;;;;;;;9.51;100.00;100833.34;5078103;28;20204;-57
2022/04/30 08:09:28;;;;;;;11.40;9.50;;;;;;;9.53;100.00;100831.56;5073520;28;20265;-58
2022/04/30 08:11:53;;;;;;;10.50;9.40;;;;;;;9.47;100.00;100827.50;5091920;28;20534;-58
2022/04/30 08:14:18;;;;;;;9.80;8.90;;;;;;;9.69;100.00;100832.66;5087751;28;20210;-60
2022/04/30 08:16:44;;;;;;;9.40;8.47;;;;;;;9.57;100.00;100829.72;5091732;28;20172;-60
2022/04/30 08:19:09;;;;;;;11.87;8.63;;;;;;;9.54;100.00;100828.13;5077661;28;20184;-59
2022/04/30 08:21:34;;;;;;;9.93;8.97;;;;;;;9.67;100.00;100831.03;5085171;28;20666;-59
2022/04/30 08:24:00;;;;;;;10.27;9.27;;;;;;;9.91;100.00;100836.94;5080596;28;20185;-59
2022/04/30 08:26:25;;;;;;;11.07;9.43;;;;;;;10.00;100.00;100828.03;5071016;28;20650;-60
2022/04/30 08:28:50;;;;;;;8.60;7.80;;;;;;;10.07;100.00;100831.19;5077119;28;20628;-59
2022/04/30 08:31:15;;;;;;;10.77;9.50;;;;;;;9.76;100.00;100830.69;5067955;28;20311;-58
2022/04/30 08:33:41;;;;;;;10.07;8.93;;;;;;;9.68;100.00;100833.53;5091426;28;20563;-59
2022/04/30 08:36:06;;;;;;;9.33;7.93;;;;;;;9.55;100.00;100831.50;5092413;28;20172;-58
2022/04/30 08:38:32;;;;;;;8.80;7.97;;;;;;;9.52;100.00;100829.91;5092505;28;20207;-58
2022/04/30 08:40:57;;;;;;;7.07;6.47;;;;;;;9.62;100.00;100835.53;5075994;28;20243;-59
2022/04/30 08:43:23;;;;;;;8.37;7.57;;;;;;;9.67;100.00;100836.16;5091315;28;20183;-59
2022/04/30 08:45:48;;;;;;;8.00;7.20;;;;;;;9.62;100.00;100830.38;5091999;28;20204;-59
2022/04/30 08:48:15;;;;;;;8.77;7.90;;;;;;;9.70;100.00;100838.63;5091666;28;20191;-60
2022/04/30 08:50:43;;;;;;;8.30;7.50;;;;;;;9.66;100.00;100839.63;5081511;28;20254;-58
2022/04/30 08:53:08;;;;;;;8.80;7.90;;;;;;;9.59;100.00;100836.47;5091569;28;20184;-59
2022/04/30 08:55:34;;;;;;;8.43;7.57;;;;;;;9.96;100.00;100836.75;5091842;28;20739;-59
2022/04/30 08:57:59;;;;;;;9.17;8.27;;;;;;;10.06;100.00;100835.50;5092501;28;20191;-58
2022/04/30 09:00:25;;;;;;;7.70;6.63;;;;;;;9.60;100.00;100834.72;5082481;28;20232;-59
2022/04/30 09:02:52;;;;;;;7.97;7.27;;;;;;;9.67;100.00;100837.03;5091124;28;20177;-59
2022/04/30 09:05:18;;;;;;;9.50;7.93;;;;;;;9.59;100.00;100838.19;5091495;28;20623;-59
2022/04/30 09:07:53;;;;;;;8.77;7.87;;;;;;;9.45;100.00;100838.72;5077822;28;20230;-63
2022/04/30 09:10:27;;;;;;;8.87;7.90;;;;;;;9.61;100.00;100839.84;5065645;28;20228;-64
2022/04/30 09:12:53;;;;;;;9.40;8.50;;;;;;;9.96;100.00;100839.31;5098747;28;20168;-63
2022/04/30 09:15:19;;;;;;;8.47;7.67;;;;;;;10.02;100.00;100834.78;5090389;28;20241;-63
2022/04/30 09:18:01;;;;;;;8.00;7.30;;;;;;;9.83;100.00;100834.66;5087150;28;20268;-64
2022/04/30 09:20:27;;;;;;;10.07;7.93;;;;;;;9.97;100.00;100836.72;5068751;28;20221;-65
2022/04/30 09:22:52;;;;;;;8.30;7.10;;;;;;;9.88;100.00;100836.22;5099748;28;20177;-62
2022/04/30 09:25:18;;;;;;;7.80;7.10;;;;;;;9.81;100.00;100836.47;5091672;28;20608;-62
2022/04/30 09:27:51;;;;;;;8.53;7.20;;;;;;;9.42;100.00;100841.44;5078603;28;20180;-63
2022/04/30 09:30:18;;;;;;;8.33;7.53;;;;;;;9.38;100.00;100845.84;5081431;28;20194;-69
2022/04/30 09:32:44;;;;;;;8.50;7.60;;;;;;;9.39;100.00;100844.09;5090186;28;20187;-61
2022/04/30 09:38:04;;;;;;;9.53;8.13;;;;;;;9.29;100.00;100847.03;5086048;28;20250;-61
2022/04/30 09:40:30;;;;;;;8.90;8.00;;;;;;;9.59;100.00;100833.91;5064636;28;20662;-59
2022/04/30 09:42:56;;;;;;;9.67;8.50;;;;;;;9.68;100.00;100846.38;5083521;28;20264;-58
2022/04/30 09:45:27;;;;;;;9.27;8.37;;;;;;;9.71;100.00;100842.84;5089060;28;20183;-61
2022/04/30 09:47:54;;;;;;;13.33;8.53;;;;;;;9.72;100.00;100843.72;5082819;28;20176;-59
2022/04/30 09:55:53;;;;;;;11.45;10.45;;;;;;;9.84;100.00;100846.63;5088490;28;20415;-61
2022/04/30 09:58:27;;;;;;;10.10;9.17;;;;;;;9.72;100.00;100844.53;5090744;28;20224;-59
2022/04/30 10:00:57;;;;;;;10.37;9.27;;;;;;;9.80;100.00;100836.53;5080665;28;20252;-59
2022/04/30 10:03:26;;;;;;;11.50;9.43;;;;;;;9.76;100.00;100835.84;5081207;28;20229;-59
2022/04/30 10:05:57;;;;;;;9.60;8.70;;;;;;;9.67;100.00;100839.59;5092218;28;20191;-60
2022/04/30 10:08:23;;;;;;;10.07;9.07;;;;;;;9.55;100.00;100841.78;5090375;28;20736;-60
2022/04/30 10:10:55;;;;;;;10.60;9.60;;;;;;;9.77;100.00;100839.22;5080961;28;20239;-60
2022/04/30 10:13:29;;;;;;;9.97;8.97;;;;;;;9.63;100.00;100829.50;5090863;28;20522;-59
2022/04/30 10:15:57;;;;;;;10.07;9.00;;;;;;;9.67;100.00;100837.03;5091943;28;20171;-59
2022/04/30 10:18:41;;;;;;;10.57;9.17;;;;;;;9.43;100.00;100843.09;5090180;28;20184;-60
2022/04/30 10:21:16;;;;;;;11.07;9.97;;;;;;;9.61;100.00;100828.69;5069785;28;20234;-59
2022/04/30 10:23:41;;;;;;;10.27;9.23;;;;;;;9.63;100.00;100837.19;5078043;28;20176;-59
2022/04/30 10:26:07;;;;;;;10.00;8.83;;;;;;;9.65;100.00;100838.81;5079832;28;20167;-60
2022/04/30 10:28:32;;;;;;;12.17;9.00;;;;;;;9.46;100.00;100835.28;5091932;28;20183;-60
2022/04/30 10:31:11;;;;;;;12.20;10.53;;;;;;;9.43;100.00;100843.94;5083193;28;20235;-59
2022/04/30 10:33:48;;;;;;;10.87;9.77;;;;;;;9.71;100.00;100840.28;5094868;28;20192;-59
2022/04/30 10:36:13;;;;;;;12.87;11.37;;;;;;;9.75;100.00;100834.16;5094958;28;20175;-60
2022/04/30 10:38:39;;;;;;;10.00;9.00;;;;;;;9.48;100.00;100833.50;5095443;28;20176;-60
2022/04/30 10:41:08;;;;;;;13.77;10.30;;;;;;;9.47;100.00;100832.63;5084400;28;20228;-60
2022/04/30 10:43:42;;;;;;;10.80;9.63;;;;;;;9.56;100.00;100838.31;5094590;28;20651;-59
2022/04/30 10:46:13;;;;;;;12.70;10.63;;;;;;;9.85;100.00;100832.06;5094849;28;20631;-61
2022/04/30 10:48:39;;;;;;;11.77;10.30;;;;;;;9.88;100.00;100831.91;5093722;28;20243;-60
2022/04/30 10:51:04;;;;;;;13.30;11.37;;;;;;;9.82;100.00;100834.72;5084344;28;20307;-60
2022/04/30 10:53:31;;;;;;;12.53;11.10;;;;;;;10.04;100.00;100837.28;5094173;28;20184;-60
2022/04/30 10:55:56;;;;;;;12.40;11.10;;;;;;;10.02;100.00;100826.22;5095472;28;20184;-60
2022/04/30 10:58:25;;;;;;;12.53;10.10;;;;;;;9.99;100.00;100834.88;5094654;28;20639;-60
2022/04/30 11:00:51;;;;;;;13.47;11.87;;;;;;;10.05;100.00;100832.97;5067458;28;20260;-60
2022/04/30 11:03:17;;;;;;;13.43;11.70;;;;;;;9.83;100.00;100832.09;5073926;28;20635;-60
2022/04/30 11:05:43;;;;;;;11.10;10.00;;;;;;;9.83;100.00;100831.28;5074147;28;20176;-60
2022/04/30 11:08:09;;;;;;;11.67;10.17;;;;;;;9.99;100.00;100819.47;5092062;28;20685;-60
2022/04/30 11:10:35;;;;;;;10.90;9.70;;;;;;;9.93;100.00;100819.72;5084462;28;20244;-60
2022/04/30 11:13:05;;;;;;;9.57;8.50;;;;;;;9.83;100.00;100821.81;5090151;28;20712;-60
2022/04/30 11:15:31;;;;;;;12.13;10.83;;;;;;;9.69;100.00;100824.13;5067924;28;20349;-59
2022/04/30 11:17:58;;;;;;;13.83;11.40;;;;;;;9.76;100.00;100822.97;5085978;28;20543;-60
2022/04/30 11:20:25;;;;;;;12.40;11.10;;;;;;;9.88;100.00;100818.25;5082017;28;20231;-61
2022/04/30 11:22:52;;;;;;;13.50;11.77;;;;;;;10.02;100.00;100821.94;5092878;28;20172;-60
2022/04/30 11:25:17;;;;;;;11.67;10.27;;;;;;;10.09;100.00;100819.09;5076665;28;20215;-59
2022/04/30 11:27:43;;;;;;;10.73;9.63;;;;;;;10.18;100.00;100819.56;5073712;28;20204;-59
2022/04/30 11:30:08;;;;;;;11.00;9.90;;;;;;;10.26;100.00;100818.41;5045605;28;20188;-60
2022/04/30 11:32:33;;;;;;;14.17;11.40;;;;;;;10.27;100.00;100817.50;5089307;28;20200;-60
2022/04/30 11:35:03;;;;;;;11.53;10.30;;;;;;;10.27;100.00;100817.50;5073997;28;20199;-60
2022/04/30 11:37:42;;;;;;;13.33;11.90;;;;;;;10.41;100.00;100815.22;5073652;28;20177;-60
2022/04/30 11:40:08;;;;;;;15.17;12.43;;;;;;;10.41;100.00;100811.81;5064631;28;20222;-60
2022/04/30 11:42:34;;;;;;;13.87;12.10;;;;;;;10.40;100.00;100815.28;5088459;28;20187;-60
2022/04/30 11:44:59;;;;;;;13.27;11.47;;;;;;;10.29;100.00;100808.81;5073849;28;20176;-59